createdAt,value
2024-01-11T00:01:39.422Z,258.85
2024-01-11T00:04:17.463Z,260.17
2024-01-11T00:06:58.758Z,265.88
2024-01-11T00:09:45.218Z,278.20
2024-01-11T00:12:25.878Z,248.70
2024-01-11T00:15:01.757Z,276.52
2024-01-11T00:17:41.374Z,244.23
2024-01-11T00:20:12.760Z,244.82
2024-01-11T00:22:48.205Z,265.00
2024-01-11T00:25:36.701Z,263.13
2024-01-11T00:28:22.830Z,252.30
2024-01-11T00:31:09.679Z,234.77
2024-01-11T00:33:50.566Z,242.32
2024-01-11T00:36:31.448Z,215.55
2024-01-11T00:39:12.098Z,256.15
2024-01-11T00:41:52.631Z,225.93
2024-01-11T00:44:34.775Z,227.18
2024-01-11T00:47:13.075Z,205.27
2024-01-11T00:49:56.562Z,215.15
2024-01-11T00:52:39.784Z,223.95
2024-01-11T00:55:18.630Z,204.55
2024-01-11T00:58:01.794Z,238.85
2024-01-11T01:00:40.311Z,216.90
2024-01-11T01:03:31.993Z,237.95
2024-01-11T01:06:10.840Z,221.30
2024-01-11T01:08:43.526Z,247.05
2024-01-11T01:11:21.120Z,260.63
2024-01-11T01:13:59.350Z,259.60
2024-01-11T01:16:43.156Z,289.55
2024-01-11T01:19:21.599Z,271.40
2024-01-11T01:22:02.451Z,264.38
2024-01-11T01:24:40.847Z,264.98
2024-01-11T01:27:21.987Z,243.52
2024-01-11T01:30:00.550Z,241.00
2024-01-11T01:32:36.829Z,246.88
2024-01-11T01:35:14.638Z,243.73
2024-01-11T01:37:50.370Z,233.45
2024-01-11T01:40:30.769Z,228.30
2024-01-11T01:43:14.859Z,208.85
2024-01-11T01:45:53.813Z,195.70
2024-01-11T01:48:35.142Z,193.82
2024-01-11T01:51:16.280Z,197.07
2024-01-11T01:53:57.472Z,225.38
2024-01-11T01:56:33.084Z,202.50
2024-01-11T01:59:10.027Z,216.13
2024-01-11T02:01:51.143Z,187.32
2024-01-11T02:04:32.399Z,182.68
2024-01-11T02:07:13.267Z,183.75
2024-01-11T02:09:53.083Z,190.05
2024-01-11T02:12:32.250Z,171.82
2024-01-11T02:15:12.364Z,184.48
2024-01-11T02:17:49.456Z,194.90
2024-01-11T02:20:34.268Z,208.15
2024-01-11T02:23:22.033Z,193.00
2024-01-11T02:26:03.143Z,187.05
2024-01-11T02:28:38.673Z,183.70
2024-01-11T02:31:20.214Z,195.98
2024-01-11T02:33:58.757Z,190.43
2024-01-11T02:36:34.973Z,204.73
2024-01-11T02:39:07.980Z,198.25
2024-01-11T02:41:51.523Z,208.35
2024-01-11T02:44:32.436Z,197.82
2024-01-11T02:47:07.327Z,178.20
2024-01-11T02:49:46.035Z,190.00
2024-01-11T02:52:26.739Z,204.38
2024-01-11T02:55:08.468Z,199.43
2024-01-11T02:57:50.119Z,204.70
2024-01-11T03:00:28.029Z,216.45
2024-01-11T03:03:06.561Z,215.50
2024-01-11T03:05:44.184Z,212.13
2024-01-11T03:08:19.327Z,237.48
2024-01-11T03:11:05.287Z,264.52
2024-01-11T03:13:46.292Z,239.48
2024-01-11T03:16:25.570Z,246.75
2024-01-11T03:19:04.881Z,253.20
2024-01-11T03:21:46.291Z,258.15
2024-01-11T03:24:27.530Z,267.83
2024-01-11T03:27:08.660Z,268.17
2024-01-11T03:29:54.651Z,294.83
2024-01-11T03:32:29.594Z,277.05
2024-01-11T03:35:11.111Z,303.08
2024-01-11T03:37:52.809Z,281.02
2024-01-11T03:40:33.475Z,294.40
2024-01-11T03:43:14.147Z,298.80
2024-01-11T03:45:52.393Z,292.35
2024-01-11T03:48:33.135Z,288.33
2024-01-11T03:51:14.457Z,278.45
2024-01-11T03:53:52.722Z,304.25
2024-01-11T03:56:38.563Z,303.73
2024-01-11T03:59:14.096Z,290.55
2024-01-11T04:01:54.703Z,281.92
2024-01-11T04:04:35.790Z,290.27
2024-01-11T04:07:18.500Z,280.67
2024-01-11T04:09:59.742Z,292.98
2024-01-11T04:12:40.588Z,286.77
2024-01-11T04:15:19.263Z,275.13
2024-01-11T04:17:57.621Z,278.85
2024-01-11T04:20:36.839Z,267.17
2024-01-11T04:23:14.226Z,243.27
2024-01-11T04:25:55.464Z,258.42
2024-01-11T04:28:36.668Z,250.80
2024-01-11T04:31:17.421Z,246.23
2024-01-11T04:33:58.912Z,254.25
2024-01-11T04:36:43.823Z,241.93
2024-01-11T04:39:27.856Z,276.08
2024-01-11T04:42:06.175Z,226.00
2024-01-11T04:44:44.057Z,252.50
2024-01-11T04:47:21.963Z,236.20
2024-01-11T04:50:00.842Z,217.23
2024-01-11T04:52:38.740Z,198.98
2024-01-11T04:55:16.799Z,192.93
2024-01-11T04:57:54.934Z,184.13
2024-01-11T05:00:41.338Z,165.55
2024-01-11T05:03:22.267Z,151.35
2024-01-11T05:06:05.394Z,158.88
2024-01-11T05:11:25.844Z,112.53
2024-01-11T05:14:01.799Z,140.32
2024-01-11T05:16:43.537Z,160.95
2024-01-11T05:19:21.693Z,199.32
2024-01-11T05:22:02.403Z,210.27
2024-01-11T05:24:41.767Z,203.80
2024-01-11T05:27:22.626Z,213.85
2024-01-11T05:30:06.138Z,207.43
2024-01-11T05:32:44.508Z,215.55
2024-01-11T05:35:25.463Z,212.65
2024-01-11T05:38:09.184Z,224.25
2024-01-11T05:40:47.321Z,215.77
2024-01-11T05:43:25.323Z,230.27
2024-01-11T05:46:09.170Z,246.85
2024-01-11T05:48:49.897Z,256.75
2024-01-11T05:51:33.297Z,238.32
2024-01-11T05:54:09.321Z,248.27
2024-01-11T05:56:47.117Z,271.15
2024-01-11T05:59:24.742Z,272.98
2024-01-11T06:02:03.266Z,264.55
2024-01-11T06:04:47.120Z,279.63
2024-01-11T06:07:32.619Z,259.67
2024-01-11T06:10:16.858Z,258.75
2024-01-11T06:12:57.718Z,266.52
2024-01-11T06:15:45.823Z,296.20
2024-01-11T06:18:21.081Z,313.92
2024-01-11T06:21:00.584Z,333.52
2024-01-11T06:23:40.834Z,332.52
2024-01-11T06:26:17.940Z,303.13
2024-01-11T06:28:59.909Z,319.83
2024-01-11T06:31:37.926Z,314.92
2024-01-11T06:34:13.041Z,306.83
2024-01-11T06:36:51.142Z,307.42
2024-01-11T06:39:34.275Z,282.08
2024-01-11T06:42:12.110Z,309.42
2024-01-11T06:44:49.972Z,303.13
2024-01-11T06:47:30.618Z,300.63
2024-01-11T06:50:11.634Z,286.55
2024-01-11T06:52:52.671Z,291.67
2024-01-11T06:55:33.638Z,319.77
2024-01-11T06:58:14.560Z,337.10
2024-01-11T07:00:50.957Z,306.10
2024-01-11T07:03:32.022Z,322.42
2024-01-11T07:06:11.311Z,309.23
2024-01-11T07:08:54.486Z,294.58
2024-01-11T07:14:15.319Z,238.93
2024-01-11T07:16:56.063Z,325.27
2024-01-11T07:19:39.889Z,309.77
2024-01-11T07:22:17.786Z,352.52
2024-01-11T07:24:59.041Z,380.65
2024-01-11T07:27:37.335Z,368.05
2024-01-11T07:30:16.069Z,366.17
2024-01-11T07:32:55.717Z,389.92
2024-01-11T07:35:28.946Z,385.85
2024-01-11T07:38:07.115Z,361.00
2024-01-11T07:40:48.109Z,420.48
2024-01-11T07:43:31.684Z,431.52
2024-01-11T07:46:15.612Z,445.80
2024-01-11T07:48:53.903Z,455.77
2024-01-11T07:51:31.801Z,458.42
2024-01-11T07:54:06.973Z,477.48
2024-01-11T07:56:44.764Z,467.67
2024-01-11T07:59:23.179Z,515.60
2024-01-11T08:02:00.628Z,497.83
2024-01-11T08:04:47.235Z,520.85
2024-01-11T08:07:26.538Z,500.33
2024-01-11T08:10:05.600Z,505.58
2024-01-11T08:12:41.409Z,513.78
2024-01-11T08:15:22.973Z,526.50
2024-01-11T08:17:58.393Z,521.22
2024-01-11T08:20:36.511Z,548.03
2024-01-11T08:23:11.867Z,491.35
2024-01-11T08:25:51.522Z,512.10
2024-01-11T08:28:27.657Z,520.45
2024-01-11T08:31:07.778Z,533.30
2024-01-11T08:33:50.816Z,521.00
2024-01-11T08:36:34.315Z,509.52
2024-01-11T08:41:58.871Z,465.83
2024-01-11T08:44:34.502Z,483.10
2024-01-11T08:47:10.896Z,471.70
2024-01-11T08:49:45.834Z,486.48
2024-01-11T08:52:23.839Z,410.90
2024-01-11T08:54:56.296Z,294.63
2024-01-11T08:57:37.590Z,163.73
2024-01-11T09:00:19.364Z,78.88
2024-01-11T09:02:54.698Z,63.70
2024-01-11T09:05:32.875Z,58.88
2024-01-11T09:08:03.639Z,51.35
2024-01-11T09:10:42.719Z,55.47
2024-01-11T09:13:17.460Z,50.05
2024-01-11T09:15:53.254Z,45.28
2024-01-11T09:18:28.256Z,38.15
2024-01-11T09:21:06.032Z,38.88
2024-01-11T09:23:43.672Z,35.65
2024-01-11T09:26:16.488Z,37.00
2024-01-11T09:28:51.054Z,36.17
2024-01-11T09:31:23.716Z,34.25
2024-01-11T09:33:59.909Z,26.27
2024-01-11T09:36:34.923Z,33.83
2024-01-11T09:39:06.985Z,35.75
2024-01-11T09:41:46.948Z,35.67
2024-01-11T09:44:16.801Z,31.85
2024-01-11T09:46:55.064Z,35.63
2024-01-11T09:49:29.292Z,32.17
2024-01-11T09:52:02.685Z,34.00
2024-01-11T09:54:38.513Z,30.58
2024-01-11T09:57:11.621Z,30.98
2024-01-11T09:59:44.323Z,34.20
2024-01-11T10:02:16.682Z,26.45
2024-01-11T10:04:47.706Z,30.77
2024-01-11T10:07:21.957Z,30.95
2024-01-11T10:09:55.314Z,31.05
2024-01-11T10:12:41.996Z,31.90
2024-01-11T10:15:12.375Z,28.42
2024-01-11T10:17:54.711Z,26.35
2024-01-11T10:20:30.074Z,23.77
2024-01-11T10:23:05.653Z,23.13
2024-01-11T10:25:42.055Z,20.77
2024-01-11T10:28:19.810Z,17.02
2024-01-11T10:30:54.372Z,18.50
2024-01-11T10:33:22.807Z,17.45
2024-01-11T10:35:52.895Z,21.63
2024-01-11T10:38:25.758Z,19.17
2024-01-11T10:41:03.976Z,19.85
2024-01-11T10:43:46.643Z,20.13
2024-01-11T10:46:18.088Z,20.75
2024-01-11T10:48:58.937Z,18.77
2024-01-11T10:51:35.477Z,20.40
2024-01-11T10:54:08.315Z,20.05
2024-01-11T10:56:46.526Z,15.80
2024-01-11T10:59:19.641Z,20.98
2024-01-11T11:01:52.968Z,17.13
2024-01-11T11:04:26.113Z,19.75
2024-01-11T11:07:02.277Z,16.48
2024-01-11T11:09:36.925Z,16.73
2024-01-11T11:12:12.458Z,16.63
2024-01-11T11:14:45.399Z,14.82
2024-01-11T11:17:16.139Z,15.45
2024-01-11T11:19:50.898Z,15.48
2024-01-11T11:22:26.016Z,14.43
2024-01-11T11:25:26.462Z,15.15
2024-01-11T11:28:01.093Z,15.23
2024-01-11T11:30:40.678Z,15.07
2024-01-11T11:33:24.978Z,13.38
2024-01-11T11:36:18.606Z,12.45
2024-01-11T11:38:51.421Z,13.30
2024-01-11T11:41:27.996Z,14.20
2024-01-11T11:44:08.128Z,13.95
2024-01-11T11:46:41.576Z,13.18
2024-01-11T11:51:47.987Z,14.35
2024-01-11T11:54:19.860Z,13.55
2024-01-11T11:56:49.573Z,14.85
2024-01-11T11:59:30.128Z,13.77
2024-01-11T12:02:03.406Z,12.57
2024-01-11T12:04:42.800Z,14.38
2024-01-11T12:07:18.320Z,13.23
2024-01-11T12:09:51.259Z,13.85
2024-01-11T12:12:26.155Z,12.88
2024-01-11T12:15:01.482Z,14.88
2024-01-11T12:17:34.447Z,13.98
2024-01-11T12:20:07.128Z,17.25
2024-01-11T12:22:39.611Z,16.75
2024-01-11T12:25:10.381Z,16.00
2024-01-11T12:27:41.543Z,16.13
2024-01-11T12:30:18.250Z,17.13
2024-01-11T12:32:56.486Z,18.08
2024-01-11T12:35:31.909Z,18.00
2024-01-11T12:38:11.122Z,18.30
2024-01-11T12:40:47.564Z,16.08
2024-01-11T12:43:20.913Z,17.30
2024-01-11T12:45:59.735Z,17.63
2024-01-11T12:48:32.941Z,18.38
2024-01-11T12:51:11.087Z,19.88
2024-01-11T12:53:51.330Z,17.27
2024-01-11T12:56:24.590Z,20.45
2024-01-11T12:59:08.719Z,17.27
2024-01-11T13:04:20.400Z,18.38
2024-01-11T13:06:53.223Z,20.73
2024-01-11T13:09:28.256Z,19.88
2024-01-11T13:12:01.794Z,19.27
2024-01-11T13:17:03.794Z,15.73
2024-01-11T13:19:40.193Z,18.45
2024-01-11T13:22:13.052Z,17.05
2024-01-11T13:24:44.812Z,17.73
2024-01-11T13:27:21.928Z,18.25
2024-01-11T13:29:58.156Z,18.55
2024-01-11T13:32:28.587Z,19.25
2024-01-11T13:34:59.630Z,15.85
2024-01-11T13:37:34.400Z,15.07
2024-01-11T13:40:10.962Z,16.88
2024-01-11T13:42:44.661Z,20.40
2024-01-11T13:45:24.601Z,25.17
2024-01-11T13:47:55.379Z,17.17
2024-01-11T13:50:31.292Z,22.13
2024-01-11T13:53:01.943Z,16.65
2024-01-11T13:55:41.448Z,15.98
2024-01-11T13:58:20.140Z,14.80
2024-01-11T14:00:54.555Z,17.67
2024-01-11T14:03:25.046Z,19.55
2024-01-11T14:06:01.885Z,15.98
2024-01-11T14:08:39.610Z,15.68
2024-01-11T14:11:15.199Z,17.38
2024-01-11T14:13:46.572Z,19.42
2024-01-11T14:16:19.635Z,31.77
2024-01-11T14:18:52.315Z,31.05
2024-01-11T14:21:27.344Z,26.80
2024-01-11T14:23:57.846Z,16.48
2024-01-11T14:26:35.665Z,18.55
2024-01-11T14:29:08.828Z,35.15
2024-01-11T14:31:41.783Z,27.88
2024-01-11T14:34:12.065Z,17.27
2024-01-11T14:36:46.692Z,16.13
2024-01-11T14:39:21.437Z,15.93
2024-01-11T14:42:02.165Z,15.32
2024-01-11T14:44:37.946Z,19.92
2024-01-11T14:47:13.527Z,28.10
2024-01-11T14:49:54.001Z,21.33
2024-01-11T14:52:32.224Z,18.27
2024-01-11T14:55:05.251Z,16.75
2024-01-11T14:57:37.405Z,13.32
2024-01-11T15:00:14.772Z,16.00
2024-01-11T15:02:47.166Z,18.02
2024-01-11T15:05:19.307Z,17.10
2024-01-11T15:07:52.673Z,17.05
2024-01-11T15:10:24.750Z,14.63
2024-01-11T15:12:56.650Z,13.55
2024-01-11T15:15:33.855Z,12.27
2024-01-11T15:18:06.909Z,13.10
2024-01-11T15:20:38.928Z,14.15
2024-01-11T15:23:11.768Z,13.68
2024-01-11T15:25:51.138Z,11.77
2024-01-11T15:28:26.269Z,12.10
2024-01-11T15:30:58.591Z,12.00
2024-01-11T15:33:33.263Z,15.07
2024-01-11T15:36:11.737Z,12.52
2024-01-11T15:38:46.691Z,14.93
2024-01-11T15:41:22.804Z,16.10
2024-01-11T15:43:52.552Z,14.48
2024-01-11T15:46:25.986Z,14.13
2024-01-11T15:51:29.121Z,14.52
2024-01-11T15:54:04.559Z,16.02
2024-01-11T15:56:36.745Z,16.15
2024-01-11T15:59:12.317Z,15.77
2024-01-11T16:01:56.579Z,18.50
2024-01-11T16:04:40.537Z,16.48
2024-01-11T16:07:15.719Z,17.35
2024-01-11T16:09:49.394Z,16.02
2024-01-11T16:12:25.238Z,18.83
2024-01-11T16:14:59.302Z,18.70
2024-01-11T16:17:34.488Z,17.63
2024-01-11T16:20:08.347Z,17.48
2024-01-11T16:22:38.585Z,17.15
2024-01-11T16:25:14.004Z,17.70
2024-01-11T16:27:49.304Z,20.25
2024-01-11T16:30:22.404Z,21.77
2024-01-11T16:32:54.987Z,20.77
2024-01-11T16:35:29.037Z,20.43
2024-01-11T16:38:04.348Z,21.60
2024-01-11T16:40:39.996Z,21.42
2024-01-11T16:43:12.040Z,21.05
2024-01-11T16:45:47.625Z,21.60
2024-01-11T16:48:22.821Z,20.75
2024-01-11T16:50:55.925Z,20.92
2024-01-11T16:53:33.354Z,18.63
2024-01-11T16:56:11.206Z,20.42
2024-01-11T16:58:46.260Z,21.88
2024-01-11T17:01:26.315Z,23.33
2024-01-11T17:03:58.228Z,21.40
2024-01-11T17:06:33.435Z,22.88
2024-01-11T17:09:12.441Z,23.90
2024-01-11T17:11:44.278Z,23.60
2024-01-11T17:14:18.834Z,23.15
2024-01-11T17:16:48.757Z,23.10
2024-01-11T17:19:25.861Z,23.05
2024-01-11T17:22:00.903Z,24.25
2024-01-11T17:24:31.606Z,26.27
2024-01-11T17:27:10.930Z,24.45
2024-01-11T17:29:41.745Z,31.63
2024-01-11T17:32:13.318Z,25.65
2024-01-11T17:34:53.442Z,25.85
2024-01-11T17:37:26.457Z,27.20
2024-01-11T17:40:02.437Z,23.23
2024-01-11T17:42:35.345Z,22.33
2024-01-11T17:45:07.658Z,24.98
2024-01-11T17:47:40.784Z,23.65
2024-01-11T17:50:13.321Z,22.33
2024-01-11T17:52:48.824Z,21.37
2024-01-11T17:55:22.568Z,21.95
2024-01-11T17:57:59.494Z,23.33
2024-01-11T18:00:31.230Z,23.48
2024-01-11T18:03:08.621Z,22.20
2024-01-11T18:05:43.103Z,24.38
2024-01-11T18:08:13.342Z,24.73
2024-01-11T18:10:48.130Z,20.42
2024-01-11T18:13:25.787Z,18.13
2024-01-11T18:15:58.987Z,25.58
2024-01-11T18:18:31.348Z,23.85
2024-01-11T18:21:06.345Z,25.00
2024-01-11T18:23:43.642Z,23.02
2024-01-11T18:26:22.261Z,25.40
2024-01-11T18:28:57.917Z,25.70
2024-01-11T18:31:25.493Z,24.60
2024-01-11T18:34:02.043Z,25.60
2024-01-11T18:36:35.112Z,24.60
2024-01-11T18:39:13.389Z,23.58
2024-01-11T18:41:44.271Z,22.23
2024-01-11T18:44:14.767Z,25.23
2024-01-11T18:46:46.705Z,22.83
2024-01-11T18:49:27.880Z,25.35
2024-01-11T18:52:03.124Z,23.33
2024-01-11T18:54:35.672Z,25.52
2024-01-11T18:57:07.930Z,24.05
2024-01-11T18:59:44.996Z,23.27
2024-01-11T19:02:16.468Z,26.23
2024-01-11T19:04:49.575Z,23.67
2024-01-11T19:07:19.696Z,22.55
2024-01-11T19:09:52.175Z,26.83
2024-01-11T19:12:27.533Z,25.38
2024-01-11T19:15:00.242Z,26.67
2024-01-11T19:17:30.927Z,23.52
2024-01-11T19:20:04.429Z,22.63
2024-01-11T19:22:36.839Z,22.98
2024-01-11T19:25:09.176Z,23.48
2024-01-11T19:27:40.575Z,22.52
2024-01-11T19:30:12.933Z,23.55
2024-01-11T19:32:48.348Z,22.50
2024-01-11T19:35:23.797Z,24.80
2024-01-11T19:37:54.588Z,22.10
2024-01-11T19:40:29.306Z,21.95
2024-01-11T19:43:04.157Z,22.17
2024-01-11T19:45:37.099Z,23.75
2024-01-11T19:48:13.157Z,23.92
2024-01-11T19:50:43.921Z,22.92
2024-01-11T19:53:17.008Z,22.23
2024-01-11T19:55:47.238Z,23.27
2024-01-11T19:58:25.720Z,23.38
2024-01-11T20:00:55.480Z,25.85
2024-01-11T20:03:31.617Z,22.88
2024-01-11T20:06:04.196Z,21.13
2024-01-11T20:08:39.928Z,23.60
2024-01-11T20:11:14.779Z,25.65
2024-01-11T20:13:49.569Z,21.90
2024-01-11T20:16:24.740Z,21.63
2024-01-11T20:18:57.211Z,22.75
2024-01-11T20:21:29.484Z,22.20
2024-01-11T20:23:59.998Z,27.92
2024-01-11T20:26:30.912Z,23.65
2024-01-11T20:29:03.499Z,28.00
2024-01-11T20:31:32.706Z,28.83
2024-01-11T20:34:07.224Z,27.20
2024-01-11T20:36:40.130Z,27.23
2024-01-11T20:39:15.260Z,27.92
2024-01-11T20:41:54.085Z,26.20
2024-01-11T20:44:26.748Z,26.73
2024-01-11T20:46:59.676Z,27.85
2024-01-11T20:49:32.296Z,26.98
2024-01-11T20:52:07.327Z,27.90
2024-01-11T20:54:41.160Z,27.17
2024-01-11T20:57:10.470Z,27.42
2024-01-11T20:59:45.706Z,24.58
2024-01-11T21:02:19.055Z,25.55
2024-01-11T21:07:26.683Z,24.33
2024-01-11T21:10:04.664Z,23.53
2024-01-11T21:12:39.990Z,23.90
2024-01-11T21:15:12.238Z,16.55
2024-01-11T21:17:47.492Z,23.08
2024-01-11T21:20:20.519Z,24.08
2024-01-11T21:22:52.164Z,23.73
2024-01-11T21:25:31.473Z,21.75
2024-01-11T21:28:05.931Z,22.48
2024-01-11T21:30:36.647Z,23.50
2024-01-11T21:33:08.992Z,23.30
2024-01-11T21:35:44.577Z,24.27
2024-01-11T21:38:17.571Z,26.17
2024-01-11T21:40:52.917Z,26.05
2024-01-11T21:43:25.944Z,24.67
2024-01-11T21:46:00.493Z,26.80
2024-01-11T21:48:30.478Z,25.25
2024-01-11T21:51:05.826Z,24.23
2024-01-11T21:53:38.860Z,23.58
2024-01-11T21:56:11.683Z,23.52
2024-01-11T21:58:46.651Z,23.95
2024-01-11T22:01:22.386Z,24.23
2024-01-11T22:04:00.662Z,24.38
2024-01-11T22:06:35.587Z,25.55
2024-01-11T22:09:07.651Z,22.63
2024-01-11T22:11:42.555Z,26.63
2024-01-11T22:14:14.511Z,26.23
2024-01-11T22:16:46.980Z,39.08
2024-01-11T22:19:16.738Z,28.03
2024-01-11T22:21:43.842Z,28.60
2024-01-11T22:24:21.620Z,30.75
2024-01-11T22:26:53.311Z,21.25
2024-01-11T22:29:23.797Z,23.13
2024-01-11T22:31:58.949Z,32.88
2024-01-11T22:34:32.622Z,22.02
2024-01-11T22:37:08.106Z,20.23
2024-01-11T22:39:45.306Z,22.30
2024-01-11T22:42:21.479Z,21.88
2024-01-11T22:44:51.465Z,29.60
2024-01-11T22:47:29.802Z,29.55
2024-01-11T22:50:05.642Z,23.45
2024-01-11T22:52:37.004Z,21.75
2024-01-11T22:55:11.997Z,24.05
2024-01-11T22:57:42.387Z,18.17
2024-01-11T23:00:24.268Z,23.48
2024-01-11T23:02:56.322Z,21.73
2024-01-11T23:05:33.491Z,23.48
2024-01-11T23:08:09.217Z,21.80
2024-01-11T23:10:44.476Z,22.98
2024-01-11T23:13:17.833Z,21.20
2024-01-11T23:18:21.850Z,19.95
2024-01-11T23:20:57.271Z,23.92
2024-01-11T23:23:29.077Z,22.25
2024-01-11T23:26:02.598Z,20.33
2024-01-11T23:28:36.357Z,21.92
2024-01-11T23:31:07.122Z,22.73
2024-01-11T23:33:43.168Z,24.17
2024-01-11T23:36:16.044Z,22.52
2024-01-11T23:38:54.082Z,17.02
2024-01-11T23:41:29.119Z,22.17
2024-01-11T23:44:04.106Z,21.42
2024-01-11T23:46:37.024Z,20.77
2024-01-11T23:49:09.815Z,22.98
2024-01-11T23:51:43.914Z,20.50
2024-01-11T23:54:17.217Z,22.75
2024-01-11T23:56:58.518Z,20.80
2024-01-11T23:59:33.814Z,22.35
